Time;durP1;ratioP1;P1;durP2;ratioP2;P2;SDS_P1;SDS_P2;PMS_P1;PMS_P2;Temp;Humidity;BMP_temperature;BMP_pressure;BME280_temperature;BME280_humidity;BME280_pressure;Samples;Min_cycle;Max_cycle;Signal;HPM_P1;HPM_P2
2023/03/06 00:01:00;;;;;;;8.82;4.43;;;5.90;92.80;;;;;;5077090;28;20715;-70
2023/03/06 00:03:26;;;;;;;9.02;4.57;;;5.90;92.80;;;;;;5073846;28;20020;-72
2023/03/06 00:05:54;;;;;;;11.23;4.43;;;5.90;92.90;;;;;;5080133;28;20111;-70
2023/03/06 00:08:20;;;;;;;13.38;4.28;;;5.80;92.90;;;;;;5069295;28;20052;-71
2023/03/06 00:10:45;;;;;;;8.60;4.20;;;5.80;93.20;;;;;;5081437;28;20032;-72
2023/03/06 00:13:13;;;;;;;10.85;4.65;;;5.80;93.10;;;;;;5068738;28;20047;-71
2023/03/06 00:15:39;;;;;;;11.57;4.72;;;5.70;93.20;;;;;;5071283;28;20554;-71
2023/03/06 00:18:05;;;;;;;10.45;4.53;;;5.70;93.30;;;;;;5089120;28;20024;-71
2023/03/06 00:20:32;;;;;;;8.27;4.50;;;5.70;93.30;;;;;;5084645;28;20035;-71
2023/03/06 00:22:58;;;;;;;12.07;5.15;;;5.70;93.40;;;;;;5071527;28;20369;-71
2023/03/06 00:25:24;;;;;;;7.85;4.55;;;5.60;93.40;;;;;;5078498;28;20027;-72
2023/03/06 00:27:50;;;;;;;9.60;4.88;;;5.60;93.50;;;;;;5070812;28;20107;-71
2023/03/06 00:30:19;;;;;;;8.82;4.78;;;5.60;93.50;;;;;;5074815;28;20035;-71
2023/03/06 00:32:45;;;;;;;13.80;5.43;;;5.50;93.50;;;;;;5072675;28;20063;-72
2023/03/06 00:35:11;;;;;;;10.90;4.65;;;5.50;93.50;;;;;;5074375;28;20044;-72
2023/03/06 00:37:37;;;;;;;10.15;5.30;;;5.50;93.60;;;;;;5081345;28;20016;-72
2023/03/06 00:40:09;;;;;;;9.98;5.18;;;5.50;93.70;;;;;;5087198;28;20012;-72
2023/03/06 00:42:35;;;;;;;11.27;5.28;;;5.40;93.70;;;;;;5078785;28;20104;-72
2023/03/06 00:45:01;;;;;;;9.52;5.35;;;5.40;93.70;;;;;;5087120;28;20034;-71
2023/03/06 00:47:27;;;;;;;10.73;4.93;;;5.40;93.70;;;;;;5077781;28;20095;-71
2023/03/06 00:49:52;;;;;;;13.15;6.00;;;5.40;93.80;;;;;;5087502;28;20429;-70
2023/03/06 00:52:18;;;;;;;11.55;4.85;;;5.40;93.80;;;;;;5071951;28;20043;-71
2023/03/06 00:54:43;;;;;;;12.23;5.47;;;5.30;93.80;;;;;;5068198;28;20452;-71
2023/03/06 00:57:09;;;;;;;14.70;5.35;;;5.30;93.80;;;;;;5081202;28;20016;-72
2023/03/06 00:59:35;;;;;;;9.93;5.32;;;5.30;93.80;;;;;;5068852;28;20039;-72
2023/03/06 01:02:01;;;;;;;11.80;5.57;;;5.20;93.90;;;;;;5075130;28;20533;-70
2023/03/06 01:04:27;;;;;;;10.93;5.40;;;5.30;94.00;;;;;;5066500;28;20019;-72
2023/03/06 01:06:52;;;;;;;11.48;5.38;;;5.20;94.00;;;;;;5078723;28;20378;-71
2023/03/06 01:09:18;;;;;;;10.10;5.80;;;5.20;94.00;;;;;;5074143;28;20098;-71
2023/03/06 01:11:43;;;;;;;12.27;5.55;;;5.20;94.10;;;;;;5073781;28;20040;-72
2023/03/06 01:14:09;;;;;;;9.63;5.68;;;5.20;94.20;;;;;;5068516;28;20029;-71
2023/03/06 01:16:35;;;;;;;10.10;5.90;;;5.10;94.40;;;;;;5073081;28;20025;-72
2023/03/06 01:19:00;;;;;;;10.60;6.30;;;5.10;94.60;;;;;;5087586;28;20107;-71
2023/03/06 01:21:26;;;;;;;12.90;6.70;;;5.00;94.70;;;;;;5083781;28;20541;-71
2023/03/06 01:23:52;;;;;;;20.35;6.70;;;4.90;94.70;;;;;;5087750;28;20024;-71
2023/03/06 01:26:17;;;;;;;14.07;7.32;;;4.90;94.80;;;;;;5086144;28;20023;-72
2023/03/06 01:28:43;;;;;;;10.25;6.78;;;4.90;95.00;;;;;;5068615;28;20028;-71
2023/03/06 01:31:09;;;;;;;11.45;7.47;;;4.90;95.10;;;;;;5068249;28;20044;-71
2023/03/06 01:33:36;;;;;;;11.18;6.28;;;4.90;95.10;;;;;;5075577;28;20016;-72
2023/03/06 01:36:08;;;;;;;11.48;6.68;;;4.90;95.10;;;;;;5088471;28;20397;-71
2023/03/06 01:38:34;;;;;;;11.93;7.45;;;4.90;95.30;;;;;;5075289;28;20020;-72
2023/03/06 01:41:02;;;;;;;12.95;7.07;;;4.90;95.00;;;;;;5086626;28;20031;-72
2023/03/06 01:43:29;;;;;;;15.73;7.25;;;4.90;95.10;;;;;;5075492;28;20112;-71
2023/03/06 01:46:22;;;;;;;9.50;7.00;;;4.80;95.20;;;;;;5087248;28;20016;-71
2023/03/06 01:48:52;;;;;;;12.05;7.00;;;4.80;95.20;;;;;;5075423;28;20379;-71
2023/03/06 01:51:18;;;;;;;11.90;7.45;;;4.80;95.30;;;;;;5083825;28;20036;-71
2023/03/06 01:53:46;;;;;;;14.60;7.78;;;4.80;95.40;;;;;;5077763;28;20114;-73
2023/03/06 01:56:13;;;;;;;15.48;8.75;;;4.70;95.40;;;;;;5077114;28;20024;-70
2023/03/06 01:58:42;;;;;;;13.75;7.93;;;4.70;95.50;;;;;;5071465;28;20139;-71
2023/03/06 02:01:13;;;;;;;10.70;7.43;;;4.70;95.60;;;;;;5078042;28;20187;-71
2023/03/06 02:03:40;;;;;;;15.05;7.63;;;4.70;95.60;;;;;;5079497;28;20024;-71
2023/03/06 02:06:06;;;;;;;12.05;8.07;;;4.70;95.60;;;;;;5082152;28;20020;-72
2023/03/06 02:08:32;;;;;;;12.88;7.63;;;4.80;95.50;;;;;;5078044;28;20480;-71
2023/03/06 02:11:11;;;;;;;13.85;8.18;;;4.70;95.50;;;;;;5077345;28;20460;-71
2023/03/06 02:13:38;;;;;;;13.70;8.65;;;4.70;95.40;;;;;;5069426;28;20025;-70
2023/03/06 02:16:04;;;;;;;49.92;20.67;;;4.70;95.40;;;;;;5076277;28;20068;-71
2023/03/06 02:18:30;;;;;;;60.22;25.67;;;4.70;95.40;;;;;;5071970;28;20095;-72
2023/03/06 02:21:02;;;;;;;39.10;18.52;;;4.70;95.50;;;;;;5083027;28;20894;-71
2023/03/06 02:23:49;;;;;;;36.35;18.55;;;4.70;95.50;;;;;;5086418;28;20013;-71
2023/03/06 02:26:16;;;;;;;31.25;16.08;;;4.60;95.80;;;;;;5084504;28;20036;-71
2023/03/06 02:28:42;;;;;;;28.75;16.38;;;4.60;96.10;;;;;;5086616;28;20021;-71
2023/03/06 02:31:17;;;;;;;30.00;18.48;;;4.60;95.90;;;;;;5081925;28;20055;-71
2023/03/06 02:33:42;;;;;;;22.17;15.10;;;4.50;95.90;;;;;;5081694;28;20047;-72
2023/03/06 02:36:12;;;;;;;26.13;16.17;;;4.50;95.90;;;;;;5078380;28;20145;-71
2023/03/06 02:38:47;;;;;;;27.73;18.83;;;4.60;95.90;;;;;;5073322;28;20024;-71
2023/03/06 02:41:13;;;;;;;26.20;17.77;;;4.60;95.90;;;;;;5080346;28;20035;-70
2023/03/06 02:43:40;;;;;;;25.50;16.65;;;4.60;95.90;;;;;;5090274;28;20024;-71
2023/03/06 02:46:06;;;;;;;29.75;17.52;;;4.60;95.90;;;;;;5080236;28;20027;-71
2023/03/06 02:48:31;;;;;;;26.58;18.20;;;4.60;95.80;;;;;;5091796;28;20470;-71
2023/03/06 02:50:57;;;;;;;25.83;17.42;;;4.60;95.80;;;;;;5086849;28;20084;-72
2023/03/06 02:53:23;;;;;;;30.77;20.40;;;4.60;95.80;;;;;;5091328;28;20132;-71
2023/03/06 02:55:49;;;;;;;24.25;17.90;;;4.60;95.80;;;;;;5078630;28;20028;-71
2023/03/06 02:58:14;;;;;;;28.58;19.73;;;4.60;95.80;;;;;;5091277;28;20113;-71
2023/03/06 03:00:40;;;;;;;25.60;17.48;;;4.50;95.80;;;;;;5073292;28;20457;-71
2023/03/06 03:03:06;;;;;;;37.35;19.13;;;4.50;95.90;;;;;;5075484;28;20032;-71
2023/03/06 03:05:32;;;;;;;32.78;22.33;;;4.50;96.20;;;;;;5078848;28;20020;-72
2023/03/06 03:07:58;;;;;;;31.58;19.95;;;4.50;95.90;;;;;;5091564;28;20059;-72
2023/03/06 03:10:23;;;;;;;31.08;20.90;;;4.50;96.00;;;;;;5085227;28;20036;-71
2023/03/06 03:12:50;;;;;;;35.30;22.48;;;4.50;96.00;;;;;;5083470;28;20031;-71
2023/03/06 03:15:16;;;;;;;33.40;21.90;;;4.50;96.00;;;;;;5088383;28;20031;-71
2023/03/06 03:17:43;;;;;;;30.40;22.08;;;4.50;95.90;;;;;;5081393;28;20031;-71
2023/03/06 03:20:12;;;;;;;33.17;22.35;;;4.50;96.00;;;;;;5089438;28;20056;-72
2023/03/06 03:22:38;;;;;;;36.55;23.80;;;4.50;96.00;;;;;;5079183;28;20687;-71
2023/03/06 03:25:04;;;;;;;36.65;23.98;;;4.50;96.00;;;;;;5090417;28;20103;-71
2023/03/06 03:27:30;;;;;;;36.60;24.38;;;4.50;96.10;;;;;;5084368;28;20110;-71
2023/03/06 03:29:57;;;;;;;36.72;24.88;;;4.50;96.10;;;;;;5090690;28;20043;-71
2023/03/06 03:32:22;;;;;;;38.15;27.00;;;4.40;96.20;;;;;;5075408;28;20020;-71
2023/03/06 03:34:48;;;;;;;39.97;26.77;;;4.40;96.40;;;;;;5087770;28;20057;-71
2023/03/06 03:37:13;;;;;;;38.08;26.02;;;4.40;96.50;;;;;;5084549;28;20394;-70
2023/03/06 03:39:39;;;;;;;44.20;27.88;;;4.30;96.60;;;;;;5070514;28;20025;-72
2023/03/06 03:42:05;;;;;;;41.35;29.02;;;4.30;96.70;;;;;;5080716;28;20077;-71
2023/03/06 03:44:31;;;;;;;40.42;28.73;;;4.30;96.80;;;;;;5071989;28;20032;-72
2023/03/06 03:46:56;;;;;;;41.83;27.80;;;4.30;96.90;;;;;;5074955;28;20085;-71
2023/03/06 03:49:22;;;;;;;40.95;28.48;;;4.30;96.90;;;;;;5074363;28;20029;-72
2023/03/06 03:51:47;;;;;;;38.65;27.33;;;4.30;97.00;;;;;;5074089;28;20024;-71
2023/03/06 03:54:13;;;;;;;40.13;26.00;;;4.30;97.10;;;;;;5082916;28;20051;-71
2023/03/06 03:56:39;;;;;;;38.22;25.63;;;4.30;97.10;;;;;;5086364;28;20790;-70
2023/03/06 03:59:06;;;;;;;39.42;27.23;;;4.20;97.10;;;;;;5080498;28;20141;-70
2023/03/06 04:01:31;;;;;;;40.22;27.30;;;4.30;97.20;;;;;;5085408;28;20035;-72
2023/03/06 04:03:57;;;;;;;39.45;27.52;;;4.20;97.20;;;;;;5076924;28;20024;-71
2023/03/06 04:06:23;;;;;;;42.63;26.52;;;4.20;97.30;;;;;;5089693;28;20046;-71
2023/03/06 04:08:48;;;;;;;38.80;26.10;;;4.20;97.30;;;;;;5081175;28;20040;-72
2023/03/06 04:11:14;;;;;;;40.35;25.65;;;4.20;97.40;;;;;;5069525;28;20041;-72
2023/03/06 04:13:40;;;;;;;36.90;25.05;;;4.20;97.40;;;;;;5082082;28;20031;-71
2023/03/06 04:16:06;;;;;;;38.10;25.95;;;4.20;97.40;;;;;;5067630;28;20021;-71
2023/03/06 04:18:31;;;;;;;37.78;26.10;;;4.20;97.40;;;;;;5073107;28;20504;-71
2023/03/06 04:20:57;;;;;;;40.30;25.38;;;4.20;97.50;;;;;;5069619;28;20082;-71
2023/03/06 04:23:23;;;;;;;35.20;23.80;;;4.20;97.50;;;;;;5078125;28;20575;-71
2023/03/06 04:25:49;;;;;;;37.78;24.15;;;4.20;97.50;;;;;;5071592;28;20048;-71
2023/03/06 04:28:15;;;;;;;37.33;24.17;;;4.30;97.50;;;;;;5070847;28;20036;-71
2023/03/06 04:30:41;;;;;;;38.63;24.55;;;4.30;97.40;;;;;;5084287;28;20038;-71
2023/03/06 04:33:07;;;;;;;32.65;22.60;;;4.30;97.40;;;;;;5081824;28;20028;-73
2023/03/06 04:35:32;;;;;;;36.00;23.90;;;4.30;97.40;;;;;;5089373;28;20024;-72
2023/03/06 04:37:58;;;;;;;35.80;24.15;;;4.30;97.40;;;;;;5086371;28;20024;-71
2023/03/06 04:40:27;;;;;;;35.13;23.65;;;4.30;97.40;;;;;;5079274;28;20056;-72
2023/03/06 04:42:55;;;;;;;36.38;22.77;;;4.40;97.30;;;;;;5070287;28;20021;-71
2023/03/06 04:45:21;;;;;;;29.80;21.77;;;4.40;97.30;;;;;;5078272;28;20475;-70
2023/03/06 04:47:46;;;;;;;36.08;23.98;;;4.50;97.30;;;;;;5088860;28;20119;-71
2023/03/06 04:50:12;;;;;;;36.47;22.95;;;4.40;97.20;;;;;;5084856;28;20081;-70
2023/03/06 04:52:39;;;;;;;35.85;22.63;;;4.40;97.10;;;;;;5089099;28;20058;-71
2023/03/06 04:55:07;;;;;;;36.13;23.05;;;4.50;97.20;;;;;;5075683;28;20091;-71
2023/03/06 04:57:35;;;;;;;35.03;23.00;;;4.50;97.20;;;;;;5089032;28;20032;-72
2023/03/06 05:00:03;;;;;;;36.55;24.40;;;4.50;97.20;;;;;;5088082;28;20020;-71
2023/03/06 05:02:28;;;;;;;40.97;23.90;;;4.50;97.20;;;;;;5083337;28;20746;-72
2023/03/06 05:04:54;;;;;;;31.95;23.42;;;4.50;97.20;;;;;;5080850;28;20107;-71
2023/03/06 05:07:20;;;;;;;37.50;23.73;;;4.50;97.30;;;;;;5070171;28;20024;-71
2023/03/06 05:09:45;;;;;;;34.05;23.88;;;4.50;97.30;;;;;;5073542;28;20107;-71
2023/03/06 05:12:11;;;;;;;35.65;24.10;;;4.60;97.30;;;;;;5069058;28;20111;-71
2023/03/06 05:14:36;;;;;;;36.78;22.83;;;4.60;97.20;;;;;;5074576;28;20025;-72
2023/03/06 05:17:02;;;;;;;34.03;22.63;;;4.60;97.30;;;;;;5074412;28;20025;-72
2023/03/06 05:19:28;;;;;;;32.42;22.15;;;4.60;97.50;;;;;;5072050;28;20024;-70
2023/03/06 05:21:53;;;;;;;35.17;24.00;;;4.60;97.40;;;;;;5078285;28;20050;-71
2023/03/06 05:24:19;;;;;;;34.25;22.85;;;4.50;97.50;;;;;;5071685;28;20023;-70
2023/03/06 05:26:44;;;;;;;33.33;22.25;;;4.50;97.60;;;;;;5082190;28;20016;-70
2023/03/06 05:29:10;;;;;;;30.77;20.65;;;4.50;97.60;;;;;;5081804;28;20406;-71
2023/03/06 05:31:36;;;;;;;30.50;19.05;;;4.50;97.70;;;;;;5079421;28;20161;-71
2023/03/06 05:34:01;;;;;;;35.35;21.92;;;4.40;97.90;;;;;;5085888;28;20028;-71
2023/03/06 05:36:27;;;;;;;29.30;19.00;;;4.40;98.00;;;;;;5075555;28;20027;-72
2023/03/06 05:38:52;;;;;;;39.15;24.13;;;4.40;98.00;;;;;;5088824;28;20479;-71
2023/03/06 05:41:18;;;;;;;40.20;23.48;;;4.40;98.00;;;;;;5079609;28;20031;-71
2023/03/06 05:43:44;;;;;;;40.40;24.15;;;4.40;98.10;;;;;;5068871;28;20103;-72
2023/03/06 05:46:10;;;;;;;36.15;23.48;;;4.50;98.20;;;;;;5078453;28;20024;-72
2023/03/06 05:48:36;;;;;;;34.10;22.23;;;4.40;98.20;;;;;;5070092;28;20025;-71
2023/03/06 05:51:03;;;;;;;31.58;20.70;;;4.50;98.20;;;;;;5075601;28;20073;-72
2023/03/06 05:53:29;;;;;;;34.58;21.25;;;4.50;98.40;;;;;;5073284;28;20112;-72
2023/03/06 05:56:03;;;;;;;31.90;21.02;;;4.50;98.40;;;;;;5088026;28;20055;-71
2023/03/06 05:58:30;;;;;;;32.15;20.20;;;4.40;98.60;;;;;;5089548;28;20402;-73
2023/03/06 06:00:56;;;;;;;28.75;19.40;;;4.30;98.70;;;;;;5091633;28;20024;-72
2023/03/06 06:03:22;;;;;;;27.75;18.33;;;4.30;98.80;;;;;;5080055;28;20078;-72
2023/03/06 06:05:48;;;;;;;27.50;19.27;;;4.30;98.90;;;;;;5074779;28;20467;-72
2023/03/06 06:08:14;;;;;;;31.05;18.92;;;4.40;98.90;;;;;;5081329;28;20055;-71
2023/03/06 06:10:40;;;;;;;27.83;18.08;;;4.40;98.90;;;;;;5090595;28;20059;-71
2023/03/06 06:13:06;;;;;;;29.17;19.08;;;4.50;98.90;;;;;;5083312;28;20437;-71
2023/03/06 06:15:31;;;;;;;27.55;15.70;;;4.60;98.80;;;;;;5071924;28;20081;-72
2023/03/06 06:17:57;;;;;;;21.83;13.98;;;4.60;98.70;;;;;;5079661;28;20024;-72
2023/03/06 06:20:24;;;;;;;22.17;14.82;;;4.60;98.60;;;;;;5091818;28;20028;-71
2023/03/06 06:22:50;;;;;;;20.95;13.60;;;4.50;98.50;;;;;;5079025;28;20081;-73
2023/03/06 06:25:16;;;;;;;25.67;15.70;;;4.50;98.60;;;;;;5092394;28;20028;-71
2023/03/06 06:27:41;;;;;;;25.83;14.82;;;4.50;98.70;;;;;;5088168;28;20106;-71
2023/03/06 06:30:09;;;;;;;21.88;14.27;;;4.50;98.70;;;;;;5090484;28;20118;-72
2023/03/06 06:32:36;;;;;;;20.48;14.00;;;4.50;98.70;;;;;;5083124;28;21480;-71
2023/03/06 06:35:02;;;;;;;20.65;13.10;;;4.50;98.60;;;;;;5091884;28;20370;-71
2023/03/06 06:37:28;;;;;;;25.30;18.58;;;4.50;98.60;;;;;;5084227;28;20025;-72
2023/03/06 06:39:54;;;;;;;19.25;13.43;;;4.60;98.50;;;;;;5071512;28;20077;-71
2023/03/06 06:42:19;;;;;;;19.25;13.23;;;4.60;98.60;;;;;;5079548;28;20026;-71
2023/03/06 06:44:45;;;;;;;17.73;11.82;;;4.60;98.60;;;;;;5077662;28;20020;-71
2023/03/06 06:47:11;;;;;;;20.10;13.05;;;4.60;98.60;;;;;;5079456;28;20115;-71
2023/03/06 06:49:36;;;;;;;20.02;13.63;;;4.70;98.60;;;;;;5078396;28;20040;-71
2023/03/06 06:52:03;;;;;;;17.05;11.68;;;4.60;98.60;;;;;;5086696;28;20028;-72
2023/03/06 06:54:28;;;;;;;20.83;11.38;;;4.70;98.50;;;;;;5078232;28;20035;-72
2023/03/06 06:56:54;;;;;;;15.65;12.07;;;4.70;98.50;;;;;;5090531;28;20024;-71
2023/03/06 06:59:22;;;;;;;18.75;12.75;;;4.80;98.50;;;;;;5074799;28;20060;-71
2023/03/06 07:01:48;;;;;;;15.57;10.73;;;4.80;98.30;;;;;;5078528;28;20135;-72
2023/03/06 07:04:14;;;;;;;16.05;11.25;;;4.90;98.20;;;;;;5079024;28;20052;-72
2023/03/06 07:06:41;;;;;;;13.68;10.13;;;4.90;98.10;;;;;;5079496;28;20051;-72
2023/03/06 07:09:06;;;;;;;15.60;11.05;;;4.90;98.10;;;;;;5073036;28;20097;-72
2023/03/06 07:11:32;;;;;;;14.55;10.50;;;4.90;98.00;;;;;;5077613;28;20032;-72
2023/03/06 07:13:58;;;;;;;13.68;8.68;;;5.00;98.00;;;;;;5075603;28;20467;-72
2023/03/06 07:16:24;;;;;;;14.15;8.90;;;5.00;98.00;;;;;;5081382;28;20126;-73
2023/03/06 07:18:50;;;;;;;18.77;10.95;;;5.10;97.90;;;;;;5076973;28;20103;-72
2023/03/06 07:21:16;;;;;;;94.25;50.35;;;5.10;97.80;;;;;;5074087;28;20522;-71
2023/03/06 07:23:41;;;;;;;23.23;14.60;;;5.20;97.70;;;;;;5075871;28;20109;-73
2023/03/06 07:26:07;;;;;;;17.38;9.60;;;5.10;97.50;;;;;;5078114;28;20553;-71
2023/03/06 07:28:33;;;;;;;18.75;11.38;;;5.20;97.60;;;;;;5076419;28;20029;-72
2023/03/06 07:30:59;;;;;;;18.02;11.02;;;5.10;97.60;;;;;;5075427;28;20040;-72
2023/03/06 07:33:25;;;;;;;15.20;11.65;;;5.10;97.50;;;;;;5081652;28;20031;-72
2023/03/06 07:35:50;;;;;;;17.80;12.57;;;5.20;97.40;;;;;;5072518;28;20039;-73
2023/03/06 07:38:16;;;;;;;14.60;10.18;;;5.30;97.40;;;;;;5079217;28;20020;-72
2023/03/06 07:40:43;;;;;;;14.20;8.95;;;5.30;97.20;;;;;;5072695;28;20031;-71
2023/03/06 07:43:10;;;;;;;20.40;11.38;;;5.30;97.10;;;;;;5075553;28;20024;-72
2023/03/06 07:45:37;;;;;;;17.98;10.35;;;5.40;97.10;;;;;;5076317;28;20423;-74
2023/03/06 07:48:02;;;;;;;18.58;10.52;;;5.40;97.00;;;;;;5077664;28;20500;-72
2023/03/06 07:50:28;;;;;;;15.60;9.88;;;5.40;97.10;;;;;;5080399;28;20036;-71
2023/03/06 07:52:54;;;;;;;15.77;8.95;;;5.40;97.10;;;;;;5078186;28;20502;-72
2023/03/06 07:55:19;;;;;;;12.73;7.03;;;5.50;97.10;;;;;;5077582;28;20020;-73
2023/03/06 07:57:48;;;;;;;9.32;6.13;;;5.50;97.00;;;;;;5079561;28;20019;-73
2023/03/06 08:00:15;;;;;;;10.65;7.05;;;5.50;97.00;;;;;;5078539;28;20528;-73
2023/03/06 08:02:41;;;;;;;9.13;5.25;;;5.50;96.90;;;;;;5079235;28;20030;-72
2023/03/06 08:05:11;;;;;;;8.98;6.05;;;5.60;96.80;;;;;;5078389;28;20111;-73
2023/03/06 08:07:36;;;;;;;8.15;5.15;;;5.70;96.80;;;;;;5074981;28;20044;-73
2023/03/06 08:10:02;;;;;;;9.13;6.05;;;5.70;96.60;;;;;;5076054;28;20038;-72
2023/03/06 08:12:28;;;;;;;6.75;4.75;;;5.80;96.60;;;;;;5074855;28;20035;-72
2023/03/06 08:14:53;;;;;;;8.70;4.70;;;5.90;96.40;;;;;;5071476;28;20498;-72
2023/03/06 08:17:19;;;;;;;7.80;3.60;;;6.00;96.00;;;;;;5076356;28;20025;-72
2023/03/06 08:19:45;;;;;;;7.40;3.75;;;6.10;95.70;;;;;;5076717;28;20108;-72
2023/03/06 08:22:12;;;;;;;7.60;3.65;;;6.20;95.70;;;;;;5072591;28;20024;-72
2023/03/06 08:24:38;;;;;;;5.07;2.95;;;6.30;95.40;;;;;;5069109;28;20016;-74
2023/03/06 08:27:04;;;;;;;10.82;4.18;;;6.50;94.90;;;;;;5071763;28;20024;-74
2023/03/06 08:29:29;;;;;;;5.20;2.60;;;6.60;94.50;;;;;;5067189;28;20614;-75
2023/03/06 08:31:55;;;;;;;4.22;2.40;;;6.80;94.50;;;;;;5071490;28;20018;-75
2023/03/06 08:34:23;;;;;;;3.30;2.30;;;6.90;94.40;;;;;;5073023;28;20026;-75
2023/03/06 08:36:49;;;;;;;3.95;1.90;;;7.10;93.90;;;;;;5073484;28;20028;-74
2023/03/06 08:39:15;;;;;;;5.22;1.95;;;7.40;93.80;;;;;;5072950;28;20134;-75
2023/03/06 08:41:41;;;;;;;4.05;1.55;;;7.70;93.70;;;;;;5068882;28;20024;-73
2023/03/06 08:44:07;;;;;;;2.83;1.25;;;7.90;93.90;;;;;;5070707;28;20071;-72
2023/03/06 08:46:34;;;;;;;3.63;1.70;;;8.00;93.50;;;;;;5068568;28;20052;-73
2023/03/06 08:49:00;;;;;;;2.67;1.30;;;8.10;91.70;;;;;;5072921;28;20050;-73
2023/03/06 08:51:27;;;;;;;5.15;4.65;;;8.20;91.40;;;;;;5068199;28;20395;-73
2023/03/06 08:53:53;;;;;;;4.97;1.40;;;8.20;91.30;;;;;;5067977;28;20038;-72
2023/03/06 08:56:19;;;;;;;2.75;1.55;;;8.30;91.90;;;;;;5068368;28;20194;-73
2023/03/06 08:58:45;;;;;;;2.85;1.33;;;8.30;91.10;;;;;;5072867;28;20128;-73
2023/03/06 09:01:13;;;;;;;3.92;1.85;;;8.30;90.60;;;;;;5072107;28;20035;-74
2023/03/06 09:03:38;;;;;;;1.45;0.98;;;8.30;90.20;;;;;;5073815;28;20034;-73
2023/03/06 09:06:04;;;;;;;3.78;1.27;;;8.40;90.70;;;;;;5068839;28;20024;-73
2023/03/06 09:08:30;;;;;;;3.05;1.05;;;8.20;89.80;;;;;;5071302;28;20044;-73
2023/03/06 09:10:55;;;;;;;4.60;1.30;;;8.20;88.40;;;;;;5070705;28;20869;-72
2023/03/06 09:13:21;;;;;;;3.13;0.98;;;8.20;90.20;;;;;;5069719;28;20097;-73
2023/03/06 09:15:47;;;;;;;2.85;1.08;;;8.20;87.90;;;;;;5068944;28;20024;-73
2023/03/06 09:18:12;;;;;;;2.10;1.08;;;8.30;87.00;;;;;;5072847;28;20489;-73
2023/03/06 09:20:38;;;;;;;2.35;0.77;;;8.40;86.20;;;;;;5072135;28;20024;-73
2023/03/06 09:23:04;;;;;;;2.65;0.95;;;8.60;90.60;;;;;;5071997;28;20055;-74
2023/03/06 09:25:29;;;;;;;2.13;0.93;;;8.60;90.70;;;;;;5073226;28;20063;-73
2023/03/06 09:27:55;;;;;;;2.17;1.00;;;8.70;90.00;;;;;;5073607;28;20497;-72
2023/03/06 09:30:20;;;;;;;2.20;0.88;;;8.80;91.10;;;;;;5076355;28;20096;-72
2023/03/06 09:32:46;;;;;;;2.08;0.80;;;8.80;89.10;;;;;;5072913;28;20319;-73
2023/03/06 09:35:13;;;;;;;1.67;0.75;;;9.10;90.50;;;;;;5076261;28;20025;-73
2023/03/06 09:37:40;;;;;;;1.58;0.73;;;9.20;88.10;;;;;;5072331;28;20482;-73
2023/03/06 09:40:06;;;;;;;2.25;0.80;;;9.30;87.40;;;;;;5076526;28;20115;-74
2023/03/06 09:42:32;;;;;;;1.35;0.60;;;9.50;83.10;;;;;;5076738;28;20053;-73
2023/03/06 09:45:00;;;;;;;1.73;0.55;;;9.80;79.30;;;;;;5075126;28;20070;-73
2023/03/06 09:47:32;;;;;;;1.25;0.65;;;10.00;83.00;;;;;;5073202;28;20460;-73
2023/03/06 09:50:04;;;;;;;0.70;0.60;;;10.20;82.20;;;;;;5072645;28;20082;-72
2023/03/06 09:52:32;;;;;;;3.33;0.60;;;10.30;76.00;;;;;;5073068;28;20040;-72
2023/03/06 09:55:07;;;;;;;1.38;0.70;;;10.30;75.30;;;;;;5073642;28;20414;-72
2023/03/06 09:57:51;;;;;;;1.17;0.70;;;10.30;76.40;;;;;;5075632;28;20025;-74
2023/03/06 10:00:23;;;;;;;1.52;0.70;;;10.30;74.00;;;;;;5073689;28;20457;-71
2023/03/06 10:02:55;;;;;;;1.75;0.65;;;10.30;75.70;;;;;;5077644;28;20782;-72
2023/03/06 10:05:38;;;;;;;1.88;0.70;;;10.30;79.10;;;;;;5077467;28;20085;-73
2023/03/06 10:08:18;;;;;;;3.53;0.90;;;10.30;80.60;;;;;;5083380;28;20083;-73
2023/03/06 10:10:48;;;;;;;;;;;10.20;74.80;;;;;;5074416;28;20429;-73
2023/03/06 10:13:25;;;;;;;2.43;0.93;;;10.30;71.10;;;;;;5078997;28;20822;-73
2023/03/06 10:15:57;;;;;;;2.75;1.25;;;10.60;84.80;;;;;;5076948;28;20486;-72
2023/03/06 10:18:23;;;;;;;2.50;0.95;;;10.80;73.80;;;;;;5076483;28;20044;-73
2023/03/06 10:21:01;;;;;;;0.85;0.60;;;10.80;71.30;;;;;;5072500;28;20053;-72
2023/03/06 10:23:45;;;;;;;3.75;1.70;;;10.70;68.20;;;;;;5074581;28;20075;-72
2023/03/06 10:26:33;;;;;;;3.42;0.80;;;10.50;67.90;;;;;;5076492;28;20028;-72
2023/03/06 10:29:32;;;;;;;3.17;1.58;;;10.60;67.80;;;;;;5076941;28;20021;-72
2023/03/06 10:32:12;;;;;;;2.15;0.90;;;10.80;74.50;;;;;;5074580;28;20040;-72
2023/03/06 10:34:39;;;;;;;0.93;0.60;;;11.00;74.70;;;;;;5074971;28;20023;-73
2023/03/06 10:37:28;;;;;;;4.38;3.17;;;11.10;67.40;;;;;;5075916;28;20032;-73
2023/03/06 10:40:02;;;;;;;2.35;1.55;;;11.30;69.50;;;;;;5073295;28;20031;-73
2023/03/06 10:42:28;;;;;;;1.70;0.90;;;11.40;69.80;;;;;;5073631;28;20108;-73
2023/03/06 10:45:11;;;;;;;1.48;1.02;;;11.50;70.00;;;;;;5073755;28;20077;-72
2023/03/06 10:47:37;;;;;;;2.33;0.95;;;11.60;76.40;;;;;;5071271;28;20028;-73
2023/03/06 10:50:26;;;;;;;3.55;1.35;;;11.60;75.50;;;;;;5076806;28;20024;-74
2023/03/06 10:53:17;;;;;;;2.13;0.60;;;11.60;81.00;;;;;;5076357;28;20055;-74
2023/03/06 10:55:53;;;;;;;2.88;0.68;;;11.50;68.00;;;;;;5074970;28;20033;-72
2023/03/06 10:58:26;;;;;;;1.15;0.65;;;11.70;79.40;;;;;;5072884;28;20541;-72
2023/03/06 11:01:17;;;;;;;0.73;0.40;;;11.80;70.00;;;;;;5073666;28;20090;-74
2023/03/06 11:03:44;;;;;;;0.90;0.40;;;11.80;68.50;;;;;;5070938;28;20020;-74
2023/03/06 11:06:29;;;;;;;2.50;0.70;;;11.60;63.20;;;;;;5075339;28;20056;-74
2023/03/06 11:09:15;;;;;;;1.63;0.60;;;11.50;61.50;;;;;;5074075;28;20082;-73
2023/03/06 11:11:40;;;;;;;2.15;0.70;;;11.50;61.60;;;;;;5072350;28;20040;-73
2023/03/06 11:14:15;;;;;;;2.65;0.60;;;11.50;60.20;;;;;;5073259;28;20024;-74
2023/03/06 11:16:51;;;;;;;1.58;0.60;;;11.60;59.10;;;;;;5071857;28;20747;-72
2023/03/06 11:19:25;;;;;;;1.50;0.55;;;11.80;59.20;;;;;;5073040;28;20051;-73
2023/03/06 11:22:14;;;;;;;1.40;0.63;;;12.00;57.70;;;;;;5072810;28;20104;-73
2023/03/06 11:24:47;;;;;;;16.30;7.78;;;12.10;57.60;;;;;;5075877;28;20055;-73
2023/03/06 11:27:23;;;;;;;40.03;20.92;;;12.00;59.70;;;;;;5071533;28;20024;-73
2023/03/06 11:29:50;;;;;;;11.57;9.32;;;11.90;58.60;;;;;;5074834;28;20039;-73
2023/03/06 11:32:55;;;;;;;2.20;0.75;;;12.10;61.50;;;;;;5075683;28;20760;-74
2023/03/06 11:35:46;;;;;;;3.17;0.70;;;12.00;56.70;;;;;;5008690;28;20036;-73
2023/03/06 11:38:27;;;;;;;0.93;0.60;;;12.10;57.40;;;;;;5078268;28;20032;-72
2023/03/06 11:41:00;;;;;;;1.10;0.80;;;12.20;57.10;;;;;;5068215;28;20115;-74
2023/03/06 11:43:41;;;;;;;3.20;0.85;;;12.40;55.70;;;;;;5071566;28;20064;-74
2023/03/06 11:46:23;;;;;;;2.97;0.50;;;12.70;56.20;;;;;;5068633;28;20028;-74
2023/03/06 11:48:55;;;;;;;10.93;4.80;;;12.80;62.50;;;;;;5073382;28;20497;-72
2023/03/06 11:51:42;;;;;;;1.92;1.05;;;12.70;56.70;;;;;;5069439;28;20028;-74
2023/03/06 11:54:11;;;;;;;3.60;1.08;;;12.70;53.20;;;;;;5070773;28;20066;-75
2023/03/06 11:56:43;;;;;;;4.00;1.48;;;12.80;53.50;;;;;;5073157;28;20056;-75
2023/03/06 11:59:33;;;;;;;2.95;0.88;;;12.90;54.30;;;;;;5073845;28;20024;-74
2023/03/06 12:02:17;;;;;;;1.70;0.70;;;12.90;52.50;;;;;;5074442;28;20166;-73
2023/03/06 12:05:08;;;;;;;2.03;0.77;;;12.80;51.50;;;;;;5071993;28;20162;-74
2023/03/06 12:07:52;;;;;;;3.63;0.60;;;12.60;53.00;;;;;;5070350;28;20055;-74
2023/03/06 12:10:22;;;;;;;1.85;0.55;;;12.50;53.70;;;;;;5074394;28;20032;-73
2023/03/06 12:13:19;;;;;;;0.93;0.50;;;12.70;62.10;;;;;;5072004;28;20474;-73
2023/03/06 12:16:09;;;;;;;2.25;0.70;;;12.70;54.60;;;;;;5082437;28;20091;-74
2023/03/06 12:18:37;;;;;;;;;;;12.80;51.90;;;;;;5074691;28;20051;-72
2023/03/06 12:21:28;;;;;;;3.00;0.90;;;12.90;51.90;;;;;;5067168;28;20305;-73
2023/03/06 12:23:56;;;;;;;;;;;12.80;52.00;;;;;;5072680;28;20035;-73
2023/03/06 12:26:40;;;;;;;5.00;1.33;;;12.80;53.90;;;;;;5076334;28;19969;-73
2023/03/06 12:29:46;;;;;;;3.85;0.90;;;13.00;57.00;;;;;;5070245;28;20134;-73
2023/03/06 12:32:30;;;;;;;1.58;0.65;;;13.00;61.50;;;;;;5071520;28;20032;-73
2023/03/06 12:34:58;;;;;;;2.70;1.00;;;13.10;53.50;;;;;;5074171;28;20487;-74
2023/03/06 12:37:53;;;;;;;6.63;1.15;;;13.00;53.50;;;;;;5070868;28;20028;-73
2023/03/06 12:40:25;;;;;;;2.05;0.80;;;13.10;54.80;;;;;;5075715;28;20127;-74
2023/03/06 12:43:38;;;;;;;4.63;0.85;;;13.20;58.30;;;;;;5072755;28;20172;-73
2023/03/06 12:46:19;;;;;;;2.83;0.77;;;13.20;55.00;;;;;;5072897;28;20105;-74
2023/03/06 12:48:48;;;;;;;;;;;13.20;55.60;;;;;;5070899;28;20036;-73
2023/03/06 12:51:19;;;;;;;1.08;0.77;;;12.90;54.60;;;;;;5072720;28;20363;-73
2023/03/06 12:53:45;;;;;;;3.38;1.20;;;12.70;54.70;;;;;;5073725;28;20081;-74
2023/03/06 12:56:15;;;;;;;2.67;1.00;;;12.60;54.80;;;;;;5070912;28;20025;-73